Terminal Aerodrome Forecast
Issued by NWS

Current Version | Previous Version | Graphics & Text | Print | Product List | Glossary On
Versions: 1 2 3 4 5 6 7 8 9 10 11 12 13 14 15 16 17 18 19 20 21 22 23 24 25
000
FTUS41 KILN 200411 AAC
TAFLCK
TAF AMD
KLCK 200411Z 2004/2024 01007KT P6SM OVC006
     FM200700 03006KT 4SM BR OVC004
      TEMPO 2008/2012 1SM BR VV002
     FM201300 09006KT P6SM BKN040
     FM201800 14006KT P6SM BKN060
     FM202000 14006KT P6SM VCTS BKN080CB=

USA.gov is the U.S. government's official web portal to all federal, state and local government web resources and services.